createdAt,value
2023-04-01T00:00:49.695Z,9.95
2023-04-01T00:03:17.565Z,9.96
2023-04-01T00:05:46.028Z,9.94
2023-04-01T00:08:13.073Z,9.92
2023-04-01T00:10:40.263Z,9.92
2023-04-01T00:13:08.059Z,9.93
2023-04-01T00:15:35.788Z,9.90
2023-04-01T00:18:03.048Z,9.90
2023-04-01T00:20:30.782Z,9.90
2023-04-01T00:22:58.139Z,9.88
2023-04-01T00:25:25.845Z,9.87
2023-04-01T00:27:52.994Z,9.88
2023-04-01T00:30:20.257Z,9.86
2023-04-01T00:32:47.208Z,9.85
2023-04-01T00:35:14.388Z,9.86
2023-04-01T00:37:41.471Z,9.85
2023-04-01T00:40:26.116Z,9.86
2023-04-01T00:42:53.257Z,9.85
2023-04-01T00:45:32.530Z,9.85
2023-04-01T00:48:08.493Z,9.86
2023-04-01T00:50:37.883Z,9.84
2023-04-01T00:53:08.443Z,9.84
2023-04-01T00:55:44.824Z,9.85
2023-04-01T00:58:19.565Z,9.82
2023-04-01T01:00:49.834Z,9.82
2023-04-01T01:03:17.109Z,9.79
2023-04-01T01:06:24.204Z,9.77
2023-04-01T01:09:11.500Z,9.75
2023-04-01T01:11:52.528Z,9.76
2023-04-01T01:14:53.396Z,9.77
2023-04-01T01:18:12.316Z,9.77
2023-04-01T01:21:20.565Z,9.75
2023-04-01T01:24:32.479Z,9.75
2023-04-01T01:27:16.619Z,9.76
2023-04-01T01:30:07.080Z,9.76
2023-04-01T01:33:31.386Z,9.74
2023-04-01T01:36:04.434Z,9.75
2023-04-01T01:38:36.470Z,9.75
2023-04-01T01:41:08.869Z,9.74
2023-04-01T01:43:48.094Z,9.78
2023-04-01T01:46:23.752Z,9.76
2023-04-01T01:48:53.529Z,9.75
2023-04-01T01:51:23.675Z,9.75
2023-04-01T01:53:51.184Z,9.75
2023-04-01T01:56:28.164Z,9.75
2023-04-01T01:59:05.210Z,9.74
2023-04-01T02:01:38.499Z,9.74
2023-04-01T02:04:15.959Z,9.74
2023-04-01T02:06:54.726Z,9.73
2023-04-01T02:09:22.071Z,9.74
2023-04-01T02:11:56.939Z,9.72
2023-04-01T02:14:29.510Z,9.72
2023-04-01T02:17:05.292Z,9.72
2023-04-01T02:19:40.663Z,9.72
2023-04-01T02:22:17.993Z,9.70
2023-04-01T02:24:46.552Z,9.71
2023-04-01T02:27:13.875Z,9.72
2023-04-01T02:29:41.215Z,9.72
2023-04-01T02:32:10.910Z,9.71
2023-04-01T02:34:38.464Z,9.70
2023-04-01T02:37:05.687Z,9.70
2023-04-01T02:39:32.992Z,9.69
2023-04-01T02:42:01.290Z,9.68
2023-04-01T02:44:29.921Z,9.66
2023-04-01T02:46:56.913Z,9.68
2023-04-01T02:49:23.990Z,9.65
2023-04-01T02:51:52.826Z,9.64
2023-04-01T02:54:20.468Z,9.64
2023-04-01T02:56:47.821Z,9.66
2023-04-01T02:59:15.245Z,9.66
2023-04-01T03:01:42.286Z,9.69
2023-04-01T03:04:09.397Z,9.67
2023-04-01T03:06:36.378Z,9.65
2023-04-01T03:09:04.353Z,9.63
2023-04-01T03:11:31.385Z,9.61
2023-04-01T03:13:58.448Z,9.58
2023-04-01T03:16:25.864Z,9.58
2023-04-01T03:18:54.250Z,9.58
2023-04-01T03:21:25.051Z,9.56
2023-04-01T03:23:52.203Z,9.56
2023-04-01T03:26:19.855Z,9.56
2023-04-01T03:28:46.863Z,9.54
2023-04-01T03:31:14.285Z,9.54
2023-04-01T03:33:48.308Z,9.53
2023-04-01T03:36:15.801Z,9.51
2023-04-01T03:38:44.580Z,9.51
2023-04-01T03:41:17.313Z,9.51
2023-04-01T03:43:45.591Z,9.49
2023-04-01T03:46:18.485Z,9.48
2023-04-01T03:48:45.815Z,9.47
2023-04-01T03:51:12.945Z,9.46
2023-04-01T03:53:39.909Z,9.45
2023-04-01T03:56:09.246Z,9.44
2023-04-01T03:58:39.724Z,9.45
2023-04-01T04:01:23.509Z,9.40
2023-04-01T04:03:54.483Z,9.40
2023-04-01T04:06:24.611Z,9.39
2023-04-01T04:08:52.471Z,9.39
2023-04-01T04:11:22.355Z,9.39
2023-04-01T04:14:11.288Z,9.37
2023-04-01T04:16:58.319Z,9.36
2023-04-01T04:19:45.099Z,9.35
2023-04-01T04:22:33.053Z,9.33
2023-04-01T04:25:20.105Z,9.36
2023-04-01T04:28:06.800Z,9.33
2023-04-01T04:30:55.646Z,9.36
2023-04-01T04:33:42.315Z,9.35
2023-04-01T04:36:29.197Z,9.32
2023-04-01T04:39:16.633Z,9.33
2023-04-01T04:42:04.766Z,9.33
2023-04-01T04:44:31.839Z,9.30
2023-04-01T04:47:01.100Z,9.29
2023-04-01T04:49:28.263Z,9.26
2023-04-01T04:51:55.396Z,9.26
2023-04-01T04:54:25.520Z,9.25
2023-04-01T04:56:56.282Z,9.23
2023-04-01T04:59:25.056Z,9.24
2023-04-01T05:02:00.136Z,9.25
2023-04-01T05:04:27.255Z,9.23
2023-04-01T05:06:54.456Z,9.24
2023-04-01T05:09:21.900Z,9.21
2023-04-01T05:11:49.163Z,9.21
2023-04-01T05:14:18.660Z,9.19
2023-04-01T05:16:55.530Z,9.18
2023-04-01T05:19:22.770Z,9.20
2023-04-01T05:21:49.769Z,9.20
2023-04-01T05:24:17.110Z,9.21
2023-04-01T05:26:45.479Z,9.21
2023-04-01T05:29:12.687Z,9.20
2023-04-01T05:31:40.554Z,9.20
2023-04-01T05:34:07.687Z,9.19
2023-04-01T05:36:35.278Z,9.19
2023-04-01T05:39:02.789Z,9.17
2023-04-01T05:41:30.110Z,9.15
2023-04-01T05:43:57.078Z,9.15
2023-04-01T05:46:44.454Z,9.13
2023-04-01T05:49:28.419Z,9.13
2023-04-01T05:51:57.551Z,9.12
2023-04-01T05:54:24.653Z,9.12
2023-04-01T05:56:51.715Z,9.12
2023-04-01T05:59:21.205Z,9.13
2023-04-01T06:01:48.489Z,9.13
2023-04-01T06:04:18.883Z,9.15
2023-04-01T06:06:47.052Z,9.16
2023-04-01T06:09:26.478Z,9.19
2023-04-01T06:12:46.094Z,9.17
2023-04-01T06:15:34.636Z,9.16
2023-04-01T06:18:42.990Z,9.19
2023-04-01T06:21:46.922Z,9.23
2023-04-01T06:24:41.129Z,9.27
2023-04-01T06:27:43.621Z,9.29
2023-04-01T06:30:37.131Z,9.29
2023-04-01T06:33:36.064Z,9.30
2023-04-01T06:36:26.972Z,9.31
2023-04-01T06:39:24.464Z,9.34
2023-04-01T06:42:44.586Z,9.37
2023-04-01T06:45:54.715Z,9.46
2023-04-01T06:49:05.496Z,9.50
2023-04-01T06:52:24.089Z,9.48
2023-04-01T06:55:34.467Z,9.51
2023-04-01T06:58:32.008Z,9.62
2023-04-01T07:01:03.315Z,9.76
2023-04-01T07:03:35.355Z,9.93
2023-04-01T07:06:15.468Z,10.04
2023-04-01T07:08:55.673Z,10.15
2023-04-01T07:11:33.904Z,10.23
2023-04-01T07:14:30.870Z,10.29
2023-04-01T07:17:09.954Z,10.28
2023-04-01T07:19:46.054Z,10.32
2023-04-01T07:22:42.133Z,10.45
2023-04-01T07:25:45.900Z,10.48
2023-04-01T07:28:44.951Z,10.37
2023-04-01T07:32:04.698Z,10.32
2023-04-01T07:35:16.644Z,10.24
2023-04-01T07:38:21.652Z,10.20
2023-04-01T07:41:16.828Z,10.23
2023-04-01T07:44:05.772Z,10.17
2023-04-01T07:47:10.575Z,10.19
2023-04-01T07:49:57.817Z,10.20
2023-04-01T07:52:34.002Z,10.18
2023-04-01T07:55:24.996Z,10.15
2023-04-01T07:58:11.458Z,10.14
2023-04-01T08:01:31.022Z,10.08
2023-04-01T08:04:43.421Z,10.04
2023-04-01T08:07:38.645Z,10.08
2023-04-01T08:10:57.151Z,10.07
2023-04-01T08:14:27.960Z,10.05
2023-04-01T08:17:56.346Z,10.05
2023-04-01T08:20:40.423Z,10.05
2023-04-01T08:23:29.069Z,10.05
2023-04-01T08:26:21.187Z,10.03
2023-04-01T08:29:19.324Z,9.99
2023-04-01T08:31:59.167Z,10.04
2023-04-01T08:34:35.069Z,10.03
2023-04-01T08:37:18.712Z,10.03
2023-04-01T08:40:15.219Z,9.94
2023-04-01T08:43:13.241Z,9.89
2023-04-01T08:46:07.390Z,9.87
2023-04-01T08:49:21.705Z,9.88
2023-04-01T08:52:13.588Z,9.90
2023-04-01T08:55:20.389Z,9.92
2023-04-01T08:58:43.528Z,9.90
2023-04-01T09:01:58.408Z,9.92
2023-04-01T09:05:11.247Z,9.91
2023-04-01T09:08:08.455Z,9.92
2023-04-01T09:11:00.905Z,9.95
2023-04-01T09:14:14.114Z,9.94
2023-04-01T09:17:09.870Z,9.90
2023-04-01T09:20:03.841Z,9.90
2023-04-01T09:23:10.036Z,9.94
2023-04-01T09:26:09.740Z,10.00
2023-04-01T09:28:48.760Z,10.03
2023-04-01T09:31:49.378Z,10.07
2023-04-01T09:34:56.652Z,10.08
2023-04-01T09:37:46.620Z,10.09
2023-04-01T09:40:54.816Z,10.11
2023-04-01T09:44:04.182Z,10.13
2023-04-01T09:47:04.157Z,10.13
2023-04-01T09:50:11.646Z,10.12
2023-04-01T09:53:13.285Z,10.11
2023-04-01T09:56:21.346Z,10.13
2023-04-01T09:59:25.734Z,10.13
2023-04-01T10:02:41.449Z,10.12
2023-04-01T10:05:56.906Z,10.09
2023-04-01T10:09:15.678Z,10.05
2023-04-01T10:11:56.441Z,10.02
2023-04-01T10:14:57.480Z,10.04
2023-04-01T10:18:12.514Z,10.05
2023-04-01T10:21:13.631Z,10.07
2023-04-01T10:24:32.230Z,10.12
2023-04-01T10:28:00.900Z,10.16
2023-04-01T10:31:02.081Z,10.20
2023-04-01T10:33:48.319Z,10.20
2023-04-01T10:36:52.247Z,10.20
2023-04-01T10:40:19.946Z,10.15
2023-04-01T10:44:05.935Z,10.06
2023-04-01T10:47:10.310Z,10.07
2023-04-01T10:50:00.398Z,10.05
2023-04-01T10:52:58.441Z,10.03
2023-04-01T10:56:24.735Z,9.99
2023-04-01T11:00:00.360Z,10.00
2023-04-01T11:03:26.707Z,10.00
2023-04-01T11:06:55.364Z,10.11
2023-04-01T11:09:52.843Z,10.17
2023-04-01T11:12:41.580Z,10.17
2023-04-01T11:15:30.028Z,10.26
2023-04-01T11:18:20.024Z,10.40
2023-04-01T11:20:59.582Z,10.49
2023-04-01T11:24:06.250Z,10.59
2023-04-01T11:26:56.873Z,10.67
2023-04-01T11:30:06.303Z,10.77
2023-04-01T11:32:49.032Z,10.87
2023-04-01T11:35:53.641Z,11.02
2023-04-01T11:38:42.001Z,11.14
2023-04-01T11:41:46.981Z,11.15
2023-04-01T11:44:37.909Z,11.14
2023-04-01T11:47:42.674Z,11.07
2023-04-01T11:50:34.421Z,10.99
2023-04-01T11:54:06.391Z,10.92
2023-04-01T11:57:01.200Z,10.77
2023-04-01T11:59:53.952Z,10.70
2023-04-01T12:03:02.280Z,10.67
2023-04-01T12:06:02.961Z,10.68
2023-04-01T12:08:48.570Z,10.67
2023-04-01T12:11:37.196Z,10.62
2023-04-01T12:14:16.062Z,10.57
2023-04-01T12:17:04.892Z,10.57
2023-04-01T12:19:37.892Z,10.57
2023-04-01T12:22:50.647Z,10.71
2023-04-01T12:25:53.448Z,11.01
2023-04-01T12:28:54.252Z,11.32
2023-04-01T12:31:39.133Z,11.64
2023-04-01T12:34:37.340Z,11.71
2023-04-01T12:37:41.047Z,11.54
2023-04-01T12:40:41.306Z,11.32
2023-04-01T12:43:14.259Z,11.18
2023-04-01T12:46:11.510Z,11.15
2023-04-01T12:49:04.508Z,11.14
2023-04-01T12:52:06.507Z,11.28
2023-04-01T12:55:07.720Z,11.46
2023-04-01T12:58:18.098Z,11.62
2023-04-01T13:01:12.163Z,11.94
2023-04-01T13:04:26.781Z,12.27
2023-04-01T13:07:31.119Z,12.79
2023-04-01T13:10:19.903Z,13.22
2023-04-01T13:13:33.605Z,13.43
2023-04-01T13:16:11.874Z,13.16
2023-04-01T13:19:08.002Z,12.94
2023-04-01T13:21:56.960Z,12.66
2023-04-01T13:24:55.903Z,12.41
2023-04-01T13:27:40.870Z,12.14
2023-04-01T13:30:29.198Z,11.94
2023-04-01T13:33:30.575Z,11.77
2023-04-01T13:36:22.445Z,11.58
2023-04-01T13:39:30.513Z,11.44
2023-04-01T13:42:20.132Z,11.30
2023-04-01T13:45:18.086Z,11.20
2023-04-01T13:48:26.698Z,11.08
2023-04-01T13:51:07.020Z,10.91
2023-04-01T13:54:21.621Z,10.82
2023-04-01T13:57:22.864Z,10.70
2023-04-01T14:00:18.182Z,10.62
2023-04-01T14:03:04.570Z,10.55
2023-04-01T14:05:57.659Z,10.49
2023-04-01T14:08:37.389Z,10.47
2023-04-01T14:11:23.057Z,10.44
2023-04-01T14:14:36.814Z,10.41
2023-04-01T14:17:39.754Z,10.39
2023-04-01T14:20:39.044Z,10.39
2023-04-01T14:23:27.443Z,10.39
2023-04-01T14:26:12.958Z,10.43
2023-04-01T14:28:51.955Z,10.44
2023-04-01T14:31:55.057Z,10.49
2023-04-01T14:35:08.679Z,10.49
2023-04-01T14:37:56.905Z,10.52
2023-04-01T14:40:55.179Z,10.53
2023-04-01T14:43:48.930Z,10.55
2023-04-01T14:46:40.841Z,10.56
2023-04-01T14:49:35.143Z,10.61
2023-04-01T14:52:12.764Z,10.59
2023-04-01T14:54:45.097Z,10.57
2023-04-01T14:57:15.450Z,10.57
2023-04-01T15:00:11.054Z,10.57
2023-04-01T15:03:09.084Z,10.50
2023-04-01T15:06:16.515Z,10.50
2023-04-01T15:09:06.650Z,10.46
2023-04-01T15:12:07.028Z,10.42
2023-04-01T15:14:58.208Z,10.44
2023-04-01T15:17:46.467Z,10.45
2023-04-01T15:20:44.007Z,10.49
2023-04-01T15:23:57.480Z,10.51
2023-04-01T15:26:47.646Z,10.52
2023-04-01T15:29:36.589Z,10.53
2023-04-01T15:32:30.445Z,10.55
2023-04-01T15:35:36.390Z,10.53
2023-04-01T15:38:22.526Z,10.47
2023-04-01T15:41:15.010Z,10.43
2023-04-01T15:43:49.420Z,10.36
2023-04-01T15:46:41.312Z,10.30
2023-04-01T15:49:39.639Z,10.33
2023-04-01T15:52:27.945Z,10.34
2023-04-01T15:55:20.338Z,10.33
2023-04-01T15:58:18.154Z,10.33
2023-04-01T16:00:54.591Z,10.28
2023-04-01T16:03:40.891Z,10.29
2023-04-01T16:06:54.258Z,10.31
2023-04-01T16:10:00.474Z,10.31
2023-04-01T16:12:46.304Z,10.29
2023-04-01T16:15:44.180Z,10.29
2023-04-01T16:18:49.614Z,10.29
2023-04-01T16:21:22.423Z,10.28
2023-04-01T16:24:21.124Z,10.26
2023-04-01T16:27:27.646Z,10.24
2023-04-01T16:30:07.190Z,10.22
2023-04-01T16:33:03.058Z,10.22
2023-04-01T16:36:01.502Z,10.21
2023-04-01T16:38:32.045Z,10.24
2023-04-01T16:41:24.972Z,10.24
2023-04-01T16:44:00.680Z,10.21
2023-04-01T16:46:44.610Z,10.21
2023-04-01T16:49:38.907Z,10.20
2023-04-01T16:52:11.980Z,10.19
2023-04-01T16:54:57.878Z,10.15
2023-04-01T16:58:00.553Z,10.04
2023-04-01T17:00:39.346Z,9.87
2023-04-01T17:03:09.236Z,9.78
2023-04-01T17:06:13.156Z,9.73
2023-04-01T17:09:13.865Z,9.67
2023-04-01T17:11:57.973Z,9.69
2023-04-01T17:14:52.184Z,9.68
2023-04-01T17:18:14.328Z,9.71
2023-04-01T17:20:58.072Z,9.70
2023-04-01T17:23:46.661Z,9.70
2023-04-01T17:26:38.450Z,9.71
2023-04-01T17:29:39.018Z,9.73
2023-04-01T17:32:19.764Z,9.73
2023-04-01T17:35:30.989Z,9.73
2023-04-01T17:38:23.756Z,9.73
2023-04-01T17:41:20.378Z,9.71
2023-04-01T17:44:17.941Z,9.71
2023-04-01T17:47:12.518Z,9.72
2023-04-01T17:50:17.002Z,9.73
2023-04-01T17:53:08.967Z,9.71
2023-04-01T17:56:05.617Z,9.72
2023-04-01T17:59:05.095Z,9.62
2023-04-01T18:01:52.985Z,9.53
2023-04-01T18:04:55.471Z,9.50
2023-04-01T18:07:36.904Z,9.44
2023-04-01T18:10:21.917Z,9.36
2023-04-01T18:13:52.338Z,9.30
2023-04-01T18:16:39.107Z,9.28
2023-04-01T18:19:24.265Z,9.26
2023-04-01T18:22:22.148Z,9.13
2023-04-01T18:25:20.390Z,9.05
2023-04-01T18:27:56.401Z,8.97
2023-04-01T18:30:31.679Z,8.98
2023-04-01T18:33:30.157Z,8.98
2023-04-01T18:36:35.770Z,8.96
2023-04-01T18:39:17.566Z,8.93
2023-04-01T18:42:18.695Z,8.89
2023-04-01T18:45:02.340Z,8.80
2023-04-01T18:47:59.705Z,8.75
2023-04-01T18:50:56.910Z,8.67
2023-04-01T18:53:39.292Z,8.68
2023-04-01T18:56:12.350Z,8.66
2023-04-01T18:59:11.158Z,8.60
2023-04-01T19:02:04.685Z,8.58
2023-04-01T19:04:51.455Z,8.62
2023-04-01T19:07:48.161Z,8.60
2023-04-01T19:10:27.236Z,8.58
2023-04-01T19:13:40.705Z,8.57
2023-04-01T19:16:38.709Z,8.49
2023-04-01T19:19:22.594Z,8.48
2023-04-01T19:22:13.813Z,8.45
2023-04-01T19:25:13.878Z,8.39
2023-04-01T19:27:53.832Z,8.34
2023-04-01T19:30:46.894Z,8.36
2023-04-01T19:33:37.295Z,8.34
2023-04-01T19:36:38.203Z,8.35
2023-04-01T19:39:49.592Z,8.31
2023-04-01T19:42:41.598Z,8.27
2023-04-01T19:45:38.915Z,8.21
2023-04-01T19:48:27.124Z,8.17
2023-04-01T19:51:04.170Z,8.13
2023-04-01T19:53:52.431Z,8.07
2023-04-01T19:56:23.472Z,8.04
2023-04-01T19:59:07.133Z,8.02
2023-04-01T20:01:46.204Z,8.04
2023-04-01T20:04:24.328Z,8.02
2023-04-01T20:07:08.540Z,7.98
2023-04-01T20:09:59.643Z,7.98
2023-04-01T20:12:51.576Z,7.96
2023-04-01T20:15:37.546Z,7.97
2023-04-01T20:18:38.498Z,7.91
2023-04-01T20:21:32.733Z,7.91
2023-04-01T20:24:22.855Z,7.90
2023-04-01T20:27:04.102Z,7.97
2023-04-01T20:30:01.943Z,8.01
2023-04-01T20:32:34.946Z,8.05
2023-04-01T20:35:36.835Z,8.05
2023-04-01T20:38:16.465Z,8.11
2023-04-01T20:41:08.912Z,8.07
2023-04-01T20:44:09.944Z,8.08
2023-04-01T20:46:57.153Z,8.11
2023-04-01T20:50:16.570Z,8.07
2023-04-01T20:52:58.616Z,8.04
2023-04-01T20:55:58.398Z,7.94
2023-04-01T20:59:13.661Z,7.91
2023-04-01T21:02:21.320Z,7.84
2023-04-01T21:05:20.652Z,7.84
2023-04-01T21:08:10.048Z,7.73
2023-04-01T21:10:59.411Z,7.63
2023-04-01T21:14:05.297Z,7.64
2023-04-01T21:17:05.240Z,7.52
2023-04-01T21:20:00.078Z,7.46
2023-04-01T21:23:01.675Z,7.49
2023-04-01T21:25:46.809Z,7.42
2023-04-01T21:28:33.769Z,7.36
2023-04-01T21:31:22.377Z,7.35
2023-04-01T21:34:15.874Z,7.32
2023-04-01T21:37:33.784Z,7.32
2023-04-01T21:40:32.898Z,7.28
2023-04-01T21:43:27.192Z,7.25
2023-04-01T21:46:21.888Z,7.25
2023-04-01T21:49:13.067Z,7.21
2023-04-01T21:52:17.265Z,7.20
2023-04-01T21:55:22.997Z,7.07
2023-04-01T21:58:28.273Z,7.02
2023-04-01T22:01:27.467Z,6.96
2023-04-01T22:04:38.297Z,6.95
2023-04-01T22:07:18.743Z,6.86
2023-04-01T22:10:15.490Z,6.80
2023-04-01T22:12:55.943Z,6.73
2023-04-01T22:16:11.243Z,6.72
2023-04-01T22:19:14.202Z,6.70
2023-04-01T22:22:04.715Z,6.63
2023-04-01T22:25:05.950Z,6.67
2023-04-01T22:27:53.403Z,6.70
2023-04-01T22:30:33.813Z,6.65
2023-04-01T22:33:47.119Z,6.63
2023-04-01T22:36:42.947Z,6.58
2023-04-01T22:39:37.333Z,6.57
2023-04-01T22:42:43.878Z,6.59
2023-04-01T22:45:14.928Z,6.52
2023-04-01T22:48:03.068Z,6.51
2023-04-01T22:50:48.631Z,6.47
2023-04-01T22:53:33.664Z,6.48
2023-04-01T22:56:08.290Z,6.50
2023-04-01T22:58:48.297Z,6.49
2023-04-01T23:01:33.109Z,6.48
2023-04-01T23:04:04.267Z,6.45
2023-04-01T23:06:43.516Z,6.41
2023-04-01T23:09:32.265Z,6.35
2023-04-01T23:12:13.153Z,6.32
2023-04-01T23:14:55.381Z,6.38
2023-04-01T23:17:48.413Z,6.34
2023-04-01T23:20:53.782Z,6.31
2023-04-01T23:23:49.055Z,6.28
2023-04-01T23:26:44.013Z,6.28
2023-04-01T23:29:18.279Z,6.28
2023-04-01T23:32:00.935Z,6.25
2023-04-01T23:34:32.387Z,6.26
2023-04-01T23:37:06.320Z,6.20
2023-04-01T23:39:41.071Z,6.24
2023-04-01T23:42:23.029Z,6.23
2023-04-01T23:44:54.946Z,6.20
2023-04-01T23:47:33.858Z,6.22
2023-04-01T23:50:11.907Z,6.28
2023-04-01T23:52:48.212Z,6.24
2023-04-01T23:55:33.522Z,6.25
2023-04-01T23:58:16.152Z,6.24
